Time;durP1;ratioP1;P1;durP2;ratioP2;P2;SDS_P1;SDS_P2;PMS_P1;PMS_P2;Temp;Humidity;BMP_temperature;BMP_pressure;BME280_temperature;BME280_humidity;BME280_pressure;Samples;Min_cycle;Max_cycle;Signal;HPM_P1;HPM_P2
2023/03/14 00:01:43;;;;;;;8.60;2.63;;;;;;;11.16;82.35;98850.91;5026741;28;20032;-57
2023/03/14 00:04:09;;;;;;;9.20;2.50;;;;;;;11.07;81.08;98849.50;5030663;28;20477;-58
2023/03/14 00:06:34;;;;;;;10.43;2.50;;;;;;;11.00;81.29;98850.38;5034744;28;20052;-58
2023/03/14 00:09:00;;;;;;;8.98;2.50;;;;;;;11.00;80.67;98854.88;5026779;28;20021;-57
2023/03/14 00:11:25;;;;;;;12.48;2.55;;;;;;;11.07;78.90;98850.34;5031079;28;20029;-57
2023/03/14 00:13:52;;;;;;;9.18;2.05;;;;;;;11.01;77.87;98845.88;5025038;28;20033;-59
2023/03/14 00:16:18;;;;;;;8.45;2.38;;;;;;;10.98;77.55;98847.13;5044075;28;20038;-58
2023/03/14 00:18:43;;;;;;;10.75;2.45;;;;;;;10.92;77.32;98850.63;5032753;28;20463;-57
2023/03/14 00:21:10;;;;;;;8.25;2.20;;;;;;;11.01;75.54;98856.50;5032514;28;20120;-58
2023/03/14 00:23:37;;;;;;;7.13;2.13;;;;;;;10.80;76.89;98842.53;5035016;28;20030;-57
2023/03/14 00:26:11;;;;;;;7.95;2.55;;;;;;;10.97;75.64;98868.53;5030153;28;20037;-57
2023/03/14 00:28:37;;;;;;;8.73;2.10;;;;;;;10.84;75.25;98867.59;5026378;28;20029;-58
2023/03/14 00:31:04;;;;;;;7.97;1.95;;;;;;;10.70;75.93;98872.13;5030427;28;20083;-57
2023/03/14 00:33:30;;;;;;;10.07;2.30;;;;;;;10.82;75.27;98872.31;5033741;28;20038;-57
2023/03/14 00:35:57;;;;;;;6.03;2.10;;;;;;;10.75;75.99;98874.16;5022108;28;20131;-57
2023/03/14 00:38:24;;;;;;;10.45;2.50;;;;;;;10.57;77.65;98878.31;5032876;28;20038;-57
2023/03/14 00:40:49;;;;;;;8.52;2.92;;;;;;;10.69;77.23;98880.28;5034028;28;20057;-58
2023/03/14 00:43:14;;;;;;;10.18;2.22;;;;;;;10.55;78.26;98875.06;5026937;28;20060;-57
2023/03/14 00:45:40;;;;;;;9.77;2.88;;;;;;;10.64;76.84;98878.28;5023653;28;20465;-58
2023/03/14 00:48:05;;;;;;;10.38;2.30;;;;;;;10.59;77.71;98886.88;5027064;28;20041;-60
2023/03/14 00:50:31;;;;;;;8.15;2.00;;;;;;;10.60;77.26;98883.19;5026736;28;20027;-57
2023/03/14 00:52:56;;;;;;;9.02;2.50;;;;;;;10.52;77.68;98878.13;5027641;28;20026;-57
2023/03/14 00:55:21;;;;;;;8.20;2.38;;;;;;;10.53;77.26;98877.09;5028422;28;20505;-58
2023/03/14 00:57:47;;;;;;;12.13;2.22;;;;;;;10.57;76.26;98883.59;5030585;28;20044;-57
2023/03/14 01:00:12;;;;;;;9.55;2.10;;;;;;;10.50;77.75;98874.88;5026744;28;20033;-57
2023/03/14 01:02:38;;;;;;;9.15;2.28;;;;;;;10.46;77.87;98876.31;5025425;28;20029;-58
2023/03/14 01:05:04;;;;;;;8.75;2.10;;;;;;;10.45;77.90;98872.03;5026115;28;20094;-57
2023/03/14 01:07:29;;;;;;;7.85;2.10;;;;;;;10.40;78.90;98863.88;5026515;28;20025;-57
2023/03/14 01:09:54;;;;;;;8.75;2.33;;;;;;;10.38;79.25;98865.91;5024863;28;20454;-57
2023/03/14 01:12:20;;;;;;;10.63;2.13;;;;;;;10.48;76.99;98866.31;5030412;28;20034;-57
2023/03/14 01:14:45;;;;;;;6.75;1.90;;;;;;;10.42;77.58;98861.84;5031143;28;20053;-58
2023/03/14 01:17:10;;;;;;;8.93;2.30;;;;;;;10.40;78.50;98861.22;5031449;28;20037;-57
2023/03/14 01:19:35;;;;;;;7.38;1.95;;;;;;;10.32;77.69;98852.47;5032702;28;20098;-59
2023/03/14 01:22:01;;;;;;;7.68;2.10;;;;;;;10.34;78.61;98862.88;5030274;28;20040;-58
2023/03/14 01:24:26;;;;;;;10.65;2.10;;;;;;;10.34;78.19;98863.69;5029454;28;20112;-58
2023/03/14 01:26:51;;;;;;;6.80;2.20;;;;;;;10.33;77.80;98861.25;5030288;28;20053;-59
2023/03/14 01:29:17;;;;;;;7.00;2.00;;;;;;;10.31;77.81;98852.69;5028596;28;20029;-58
2023/03/14 01:31:42;;;;;;;6.55;1.98;;;;;;;10.27;78.47;98854.94;5035760;28;20731;-59
2023/03/14 01:34:07;;;;;;;7.68;2.20;;;;;;;10.29;78.19;98860.03;5035792;28;20100;-57
2023/03/14 01:36:32;;;;;;;5.75;1.80;;;;;;;10.48;76.23;98858.38;5028219;28;20037;-60
2023/03/14 01:38:58;;;;;;;7.03;2.10;;;;;;;10.28;77.69;98843.34;5018892;28;20056;-58
2023/03/14 01:41:25;;;;;;;7.60;2.28;;;;;;;10.25;77.35;98840.28;5025742;28;20034;-58
2023/03/14 01:43:50;;;;;;;6.43;2.30;;;;;;;10.23;77.88;98830.69;5028678;28;20419;-58
2023/03/14 01:46:28;;;;;;;7.13;2.10;;;;;;;10.46;77.75;98832.06;5039486;28;20074;-58
2023/03/14 01:49:08;;;;;;;7.32;1.95;;;;;;;10.31;78.47;98839.47;5023316;28;20084;-58
2023/03/14 01:51:36;;;;;;;6.57;2.20;;;;;;;10.24;78.78;98826.22;5027338;28;20388;-58
2023/03/14 01:54:18;;;;;;;9.38;2.33;;;;;;;10.22;78.71;98822.97;5026186;28;20100;-58
2023/03/14 01:56:49;;;;;;;8.18;2.20;;;;;;;10.16;79.43;98814.00;5024044;28;20029;-57
2023/03/14 01:59:15;;;;;;;9.75;2.40;;;;;;;10.21;78.52;98816.03;5026101;28;20064;-59
2023/03/14 02:01:43;;;;;;;9.52;2.30;;;;;;;10.29;78.17;98823.75;5032852;28;20036;-58
2023/03/14 02:04:10;;;;;;;10.10;2.40;;;;;;;10.17;79.58;98817.50;5035379;28;20163;-57
2023/03/14 02:06:45;;;;;;;11.20;2.30;;;;;;;10.17;80.18;98817.50;5019814;28;20071;-58
2023/03/14 02:09:10;;;;;;;10.13;2.70;;;;;;;10.13;79.36;98808.31;5024797;28;20030;-58
2023/03/14 02:11:35;;;;;;;10.90;2.60;;;;;;;10.18;79.80;98821.75;5023131;28;20100;-59
2023/03/14 02:14:01;;;;;;;12.32;2.88;;;;;;;10.14;80.44;98813.41;5032922;28;20151;-60
2023/03/14 02:16:27;;;;;;;12.15;2.50;;;;;;;10.14;80.24;98809.94;5027874;28;20033;-56
2023/03/14 02:18:52;;;;;;;10.10;2.65;;;;;;;10.26;80.33;98818.06;5018656;28;20026;-58
2023/03/14 02:21:53;;;;;;;12.10;2.65;;;;;;;10.18;80.29;98800.56;5025291;28;20083;-59
2023/03/14 02:24:30;;;;;;;11.48;2.60;;;;;;;10.13;80.78;98811.78;5018529;28;20030;-57
2023/03/14 02:27:09;;;;;;;11.18;2.53;;;;;;;10.09;81.19;98808.75;5020892;28;20034;-57
2023/03/14 02:29:38;;;;;;;12.00;2.67;;;;;;;10.03;82.14;98803.47;5024573;28;20038;-57
2023/03/14 02:32:05;;;;;;;10.93;2.80;;;;;;;10.08;81.29;98804.47;5028141;28;20033;-58
2023/03/14 02:34:31;;;;;;;13.90;3.05;;;;;;;10.05;82.04;98796.13;5023773;28;20033;-58
2023/03/14 02:36:58;;;;;;;8.15;2.20;;;;;;;10.15;80.65;98791.22;5025440;28;20033;-58
2023/03/14 02:39:34;;;;;;;11.32;2.72;;;;;;;10.04;82.00;98795.31;5017437;28;20535;-57
2023/03/14 02:42:00;;;;;;;7.95;2.70;;;;;;;10.02;82.13;98781.47;5026729;28;20046;-57
2023/03/14 02:44:25;;;;;;;12.88;2.72;;;;;;;9.96;82.75;98782.28;5026687;28;20529;-57
2023/03/14 02:46:51;;;;;;;13.65;3.20;;;;;;;10.08;81.96;98791.22;5028062;28;20060;-57
2023/03/14 02:49:16;;;;;;;11.27;2.60;;;;;;;9.99;82.63;98787.19;5034720;28;20041;-57
2023/03/14 02:51:43;;;;;;;12.05;2.70;;;;;;;9.96;82.59;98787.59;5027281;28;20497;-58
2023/03/14 02:54:08;;;;;;;11.60;2.67;;;;;;;9.92;82.85;98786.41;5027186;28;20083;-58
2023/03/14 02:56:33;;;;;;;13.25;2.90;;;;;;;9.91;83.72;98780.28;5025619;28;20034;-57
2023/03/14 02:59:01;;;;;;;11.13;2.88;;;;;;;9.91;83.30;98785.56;5027701;28;20541;-57
2023/03/14 03:01:27;;;;;;;12.75;2.70;;;;;;;9.87;83.85;98788.84;5026867;28;20127;-58
2023/03/14 03:03:52;;;;;;;10.98;2.50;;;;;;;9.86;83.99;98792.53;5024090;28;20104;-57
2023/03/14 03:06:17;;;;;;;11.77;2.53;;;;;;;9.86;83.81;98793.31;5026264;28;20034;-57
2023/03/14 03:08:43;;;;;;;11.43;2.60;;;;;;;9.89;83.82;98794.75;5026897;28;20052;-58
2023/03/14 03:11:08;;;;;;;10.70;2.75;;;;;;;9.91;83.62;98795.34;5017978;28;20030;-58
2023/03/14 03:13:34;;;;;;;13.45;2.95;;;;;;;9.92;83.99;98802.28;5031165;28;20091;-58
2023/03/14 03:15:59;;;;;;;12.32;2.80;;;;;;;9.89;83.79;98802.69;5022832;28;20034;-58
2023/03/14 03:18:25;;;;;;;11.90;2.60;;;;;;;9.92;83.76;98807.56;5029381;28;20032;-57
2023/03/14 03:20:50;;;;;;;13.05;2.60;;;;;;;9.88;84.18;98806.34;5030468;28;20428;-57
2023/03/14 03:23:16;;;;;;;9.38;2.53;;;;;;;9.88;84.37;98795.75;5033647;28;20026;-57
2023/03/14 03:25:41;;;;;;;10.43;2.40;;;;;;;9.87;84.10;98794.94;5031654;28;20037;-57
2023/03/14 03:28:07;;;;;;;8.55;2.67;;;;;;;9.88;83.85;98787.81;5029484;28;20029;-56
2023/03/14 03:30:37;;;;;;;12.30;3.10;;;;;;;9.87;83.03;98788.84;5027473;28;20029;-59
2023/03/14 03:33:03;;;;;;;13.02;2.60;;;;;;;9.87;83.96;98791.50;5030257;28;20030;-56
2023/03/14 03:35:28;;;;;;;12.48;2.78;;;;;;;9.95;83.09;98788.63;5032434;28;20499;-57
2023/03/14 03:37:53;;;;;;;11.15;2.42;;;;;;;9.87;83.86;98788.84;5030520;28;20465;-57
2023/03/14 03:40:19;;;;;;;7.97;2.30;;;;;;;9.83;83.21;98783.97;5030543;28;20052;-57
2023/03/14 03:42:44;;;;;;;11.00;2.40;;;;;;;9.80;83.61;98768.50;5021978;28;20029;-57
2023/03/14 03:45:09;;;;;;;10.48;2.40;;;;;;;9.81;83.31;98778.06;5032855;28;20384;-57
2023/03/14 03:47:35;;;;;;;7.50;2.10;;;;;;;9.78;83.49;98770.53;5031702;28;20034;-58
2023/03/14 03:50:00;;;;;;;9.32;2.15;;;;;;;9.83;83.01;98772.56;5031176;28;20052;-59
2023/03/14 03:52:25;;;;;;;11.32;2.65;;;;;;;9.80;83.85;98783.56;5030513;28;20036;-56
2023/03/14 03:54:50;;;;;;;8.82;2.28;;;;;;;9.83;83.12;98773.38;5025596;28;20079;-57
2023/03/14 03:57:16;;;;;;;8.60;2.20;;;;;;;9.80;83.86;98773.78;5029703;28;20083;-57
2023/03/14 03:59:41;;;;;;;7.10;2.03;;;;;;;9.78;84.96;98775.81;5027923;28;20033;-56
2023/03/14 04:02:07;;;;;;;9.07;2.00;;;;;;;9.77;86.12;98779.50;5027658;28;20029;-56
2023/03/14 04:04:32;;;;;;;9.80;2.10;;;;;;;9.69;87.32;98763.84;5031474;28;20484;-57
2023/03/14 04:06:57;;;;;;;5.68;1.90;;;;;;;9.62;88.07;98765.69;5034479;28;20038;-59
2023/03/14 04:09:23;;;;;;;8.90;1.92;;;;;;;9.59;86.91;98766.09;5030721;28;20507;-57
2023/03/14 04:11:48;;;;;;;9.77;2.20;;;;;;;9.52;87.56;98761.63;5027204;28;20029;-56
2023/03/14 04:14:14;;;;;;;9.18;2.33;;;;;;;9.50;87.71;98763.66;5029412;28;20026;-57
2023/03/14 04:16:39;;;;;;;7.00;2.10;;;;;;;9.54;86.42;98759.56;5028176;28;20033;-58
2023/03/14 04:19:04;;;;;;;11.43;2.38;;;;;;;9.46;87.46;98757.16;5031771;28;20053;-57
2023/03/14 04:21:29;;;;;;;7.35;2.13;;;;;;;9.48;86.63;98757.75;5030556;28;20116;-57
2023/03/14 04:23:55;;;;;;;11.38;2.40;;;;;;;9.48;87.21;98754.31;5028771;28;20052;-57
2023/03/14 04:26:20;;;;;;;6.82;2.05;;;;;;;9.42;87.80;98759.41;5027271;28;20068;-57
2023/03/14 04:28:45;;;;;;;8.32;2.28;;;;;;;9.44;88.18;98763.66;5020861;28;20113;-57
2023/03/14 04:31:14;;;;;;;6.43;2.20;;;;;;;9.41;88.79;98751.66;5026361;28;20459;-60
2023/03/14 04:33:39;;;;;;;8.27;2.10;;;;;;;9.46;89.52;98757.16;5030761;28;20033;-58
2023/03/14 04:36:05;;;;;;;8.18;2.08;;;;;;;9.43;90.02;98754.94;5026246;28;20040;-57
2023/03/14 04:38:31;;;;;;;6.47;2.13;;;;;;;9.37;91.52;98753.09;5019445;28;20032;-58
2023/03/14 04:40:56;;;;;;;4.28;1.80;;;;;;;9.35;92.20;98744.53;5026467;28;20033;-57
2023/03/14 04:43:21;;;;;;;6.00;2.00;;;;;;;9.42;91.52;98750.63;5020514;28;20041;-57
2023/03/14 04:45:47;;;;;;;7.78;2.10;;;;;;;9.33;92.36;98746.59;5027115;28;20493;-58
2023/03/14 04:48:12;;;;;;;4.40;1.90;;;;;;;9.39;92.77;98748.41;5029790;28;20052;-58
2023/03/14 04:50:38;;;;;;;4.75;1.80;;;;;;;9.28;95.24;98740.06;5034369;28;20102;-57
2023/03/14 04:53:03;;;;;;;5.47;1.73;;;;;;;9.22;96.17;98756.75;5026006;28;20497;-57
2023/03/14 04:55:29;;;;;;;5.75;1.95;;;;;;;9.19;96.79;98748.44;5027847;28;20034;-57
2023/03/14 04:57:54;;;;;;;6.10;1.88;;;;;;;9.21;97.73;98752.50;5029443;28;20030;-57
2023/03/14 05:00:20;;;;;;;6.90;2.10;;;;;;;9.09;99.60;98757.56;5028042;28;20042;-57
2023/03/14 05:02:45;;;;;;;4.97;1.92;;;;;;;9.02;100.00;98754.94;5024224;28;20496;-57
2023/03/14 05:05:11;;;;;;;5.97;1.90;;;;;;;8.96;100.00;98747.00;5021079;28;20101;-57
2023/03/14 05:07:36;;;;;;;5.38;2.00;;;;;;;8.94;100.00;98749.84;5023951;28;20409;-58
2023/03/14 05:10:02;;;;;;;3.70;2.00;;;;;;;8.96;100.00;98753.09;5028514;28;20155;-58
2023/03/14 05:12:27;;;;;;;5.43;2.15;;;;;;;8.88;100.00;98745.34;5025810;28;20026;-58
2023/03/14 05:14:52;;;;;;;5.40;2.10;;;;;;;8.88;100.00;98745.34;5028831;28;20029;-57
2023/03/14 05:17:18;;;;;;;6.07;2.13;;;;;;;8.90;100.00;98747.81;5036194;28;20028;-58
2023/03/14 05:19:43;;;;;;;5.35;2.10;;;;;;;8.85;100.00;98745.78;5029585;28;20029;-57
2023/03/14 05:22:10;;;;;;;5.60;2.45;;;;;;;8.89;100.00;98752.28;5039527;28;20021;-58
2023/03/14 05:24:35;;;;;;;5.65;2.40;;;;;;;8.91;100.00;98750.25;5031346;28;20036;-60
2023/03/14 05:27:01;;;;;;;5.70;2.60;;;;;;;8.86;100.00;98747.41;5045312;28;20380;-57
2023/03/14 05:29:26;;;;;;;5.30;2.15;;;;;;;8.81;100.00;98736.59;5027456;28;20100;-57
2023/03/14 05:31:51;;;;;;;7.20;2.45;;;;;;;8.80;100.00;98727.88;5025893;28;20033;-58
2023/03/14 05:34:16;;;;;;;5.63;2.70;;;;;;;8.80;100.00;98732.34;5033165;28;20029;-58
2023/03/14 05:36:42;;;;;;;6.20;2.55;;;;;;;8.80;100.00;98721.78;5032183;28;20095;-57
2023/03/14 05:39:07;;;;;;;6.45;2.60;;;;;;;8.78;100.00;98731.75;5026315;28;20106;-57
2023/03/14 05:41:33;;;;;;;6.85;2.63;;;;;;;8.77;100.00;98722.19;5029315;28;20022;-58
2023/03/14 05:43:58;;;;;;;7.50;2.90;;;;;;;8.79;100.00;98725.44;5026127;28;20087;-57
2023/03/14 05:46:23;;;;;;;6.35;2.80;;;;;;;8.80;100.00;98722.59;5034059;28;20128;-56
2023/03/14 05:48:48;;;;;;;6.65;2.90;;;;;;;8.78;100.00;98723.81;5027459;28;20120;-58
2023/03/14 05:51:14;;;;;;;8.60;3.05;;;;;;;8.78;100.00;98713.25;5020400;28;20041;-58
2023/03/14 05:53:40;;;;;;;7.20;3.30;;;;;;;8.74;100.00;98729.50;5020671;28;20037;-57
2023/03/14 05:56:05;;;;;;;9.02;3.15;;;;;;;8.74;100.00;98721.56;5024081;28;20033;-56
2023/03/14 05:58:31;;;;;;;6.78;3.20;;;;;;;8.70;100.00;98712.44;5023704;28;20126;-58
2023/03/14 06:00:56;;;;;;;7.57;3.20;;;;;;;8.75;100.00;98709.19;5018139;28;20036;-57
2023/03/14 06:03:22;;;;;;;10.00;3.35;;;;;;;8.73;100.00;98713.81;5023652;28;20052;-58
2023/03/14 06:05:50;;;;;;;8.20;3.00;;;;;;;8.71;100.00;98710.59;5018021;28;20025;-58
2023/03/14 06:08:16;;;;;;;10.52;3.50;;;;;;;8.71;100.00;98714.06;5021277;28;20485;-57
2023/03/14 06:10:41;;;;;;;10.77;3.45;;;;;;;8.71;100.00;98711.41;5020480;28;20041;-57
2023/03/14 06:13:07;;;;;;;8.80;3.60;;;;;;;8.72;100.00;98723.59;5019732;28;20052;-57
2023/03/14 06:15:32;;;;;;;10.45;3.72;;;;;;;8.70;100.00;98722.19;5022687;28;20742;-57
2023/03/14 06:17:58;;;;;;;7.95;3.40;;;;;;;8.69;100.00;98716.06;5021596;28;20447;-57
2023/03/14 06:20:23;;;;;;;7.22;3.55;;;;;;;8.69;100.00;98716.06;5015646;28;20454;-57
2023/03/14 06:22:48;;;;;;;9.68;4.00;;;;;;;8.71;100.00;98714.06;5026671;28;20037;-57
2023/03/14 06:25:14;;;;;;;8.77;3.83;;;;;;;8.77;100.00;98714.25;5024774;28;20049;-57
2023/03/14 06:27:39;;;;;;;8.32;3.85;;;;;;;8.73;100.00;98714.66;5021056;28;20099;-57
2023/03/14 06:30:05;;;;;;;7.78;3.60;;;;;;;8.81;100.00;98712.81;5018578;28;20476;-58
2023/03/14 06:32:31;;;;;;;7.70;4.13;;;;;;;8.77;100.00;98714.25;5019512;28;20038;-58
2023/03/14 06:34:57;;;;;;;10.55;4.18;;;;;;;8.83;100.00;98721.38;5022042;28;20032;-58
2023/03/14 06:37:22;;;;;;;8.25;4.00;;;;;;;8.80;100.00;98721.78;5025366;28;20537;-57
2023/03/14 06:39:47;;;;;;;9.45;4.07;;;;;;;8.81;100.00;98726.03;5021749;28;20504;-58
2023/03/14 06:42:13;;;;;;;8.90;4.40;;;;;;;8.84;100.00;98729.09;5019928;28;20030;-58
2023/03/14 06:44:38;;;;;;;7.75;3.88;;;;;;;8.94;100.00;98738.47;5016821;28;20724;-58
2023/03/14 06:47:03;;;;;;;8.13;4.10;;;;;;;8.91;100.00;98726.47;5022410;28;20034;-57
2023/03/14 06:49:28;;;;;;;7.50;4.20;;;;;;;8.89;100.00;98736.44;5026423;28;20054;-57
2023/03/14 06:51:54;;;;;;;7.03;4.25;;;;;;;8.91;100.00;98729.09;5025018;28;20025;-58
2023/03/14 06:54:19;;;;;;;7.65;4.05;;;;;;;9.08;100.00;98734.78;5026314;28;20455;-58
2023/03/14 06:56:44;;;;;;;10.50;4.40;;;;;;;8.98;100.00;98732.56;5028563;28;20105;-57
2023/03/14 06:59:09;;;;;;;9.80;4.22;;;;;;;8.99;100.00;98739.47;5023086;28;20037;-56
2023/03/14 07:01:35;;;;;;;8.77;4.20;;;;;;;9.04;100.00;98732.75;5026000;28;20030;-60
2023/03/14 07:04:01;;;;;;;9.82;4.38;;;;;;;9.08;100.00;98744.56;5022510;28;20022;-58
2023/03/14 07:06:26;;;;;;;8.02;4.20;;;;;;;9.05;100.00;98745.78;5025181;28;20458;-58
2023/03/14 07:08:51;;;;;;;10.80;4.13;;;;;;;9.04;100.00;98746.00;5021579;28;20021;-57
2023/03/14 07:11:17;;;;;;;7.05;4.18;;;;;;;9.02;100.00;98749.66;5024639;28;20037;-58
2023/03/14 07:13:42;;;;;;;9.95;4.32;;;;;;;9.00;100.00;98749.06;5022275;28;20428;-58
2023/03/14 07:16:08;;;;;;;8.90;4.20;;;;;;;9.04;100.00;98759.22;5021483;28;20034;-57
2023/03/14 07:18:34;;;;;;;9.07;4.57;;;;;;;9.05;100.00;98776.69;5021141;28;20119;-58
2023/03/14 07:20:59;;;;;;;7.82;4.50;;;;;;;9.06;100.00;98778.31;5022728;28;20394;-58
2023/03/14 07:23:25;;;;;;;8.88;4.07;;;;;;;9.14;100.00;98780.78;5022167;28;20038;-57
2023/03/14 07:25:51;;;;;;;10.48;3.92;;;;;;;9.12;100.00;98803.94;5027299;28;20036;-58
2023/03/14 07:28:17;;;;;;;10.93;4.28;;;;;;;9.26;100.00;98839.97;5021676;28;20086;-58
2023/03/14 07:30:42;;;;;;;2.40;1.50;;;;;;;9.34;100.00;98869.88;5026074;28;20033;-57
2023/03/14 07:33:08;;;;;;;1.17;1.05;;;;;;;9.01;96.90;98893.44;5025024;28;20445;-58
2023/03/14 07:35:33;;;;;;;1.77;1.20;;;;;;;8.68;96.76;98893.31;5024370;28;20041;-57
2023/03/14 07:37:58;;;;;;;2.25;1.30;;;;;;;8.48;97.67;98905.38;5024813;28;20026;-57
2023/03/14 07:40:23;;;;;;;2.50;1.45;;;;;;;8.28;98.56;98909.72;5020854;28;20029;-57
2023/03/14 07:42:49;;;;;;;3.45;1.50;;;;;;;8.13;98.63;98923.88;5024761;28;20472;-57
2023/03/14 07:45:15;;;;;;;2.30;1.30;;;;;;;7.86;100.00;98939.53;5022524;28;20030;-57
2023/03/14 07:47:41;;;;;;;4.43;1.60;;;;;;;7.62;100.00;98941.53;5032132;28;20029;-57
2023/03/14 07:50:07;;;;;;;5.78;1.50;;;;;;;7.57;100.00;98949.22;5027552;28;20049;-57
2023/03/14 07:52:33;;;;;;;2.97;1.75;;;;;;;7.43;100.00;98960.59;5025626;28;20042;-56
2023/03/14 07:54:58;;;;;;;2.30;1.52;;;;;;;7.60;100.00;98971.75;5021986;28;20036;-59
2023/03/14 07:57:24;;;;;;;1.48;1.38;;;;;;;7.52;100.00;98981.44;5021872;28;20087;-58
2023/03/14 07:59:49;;;;;;;2.22;1.42;;;;;;;7.42;100.00;98974.81;5025611;28;20394;-58
2023/03/14 08:02:15;;;;;;;3.17;1.77;;;;;;;7.35;100.00;98985.31;5023037;28;20374;-59
2023/03/14 08:04:40;;;;;;;3.17;1.80;;;;;;;7.32;100.00;98991.75;5024612;28;20424;-59
2023/03/14 08:07:06;;;;;;;4.97;2.25;;;;;;;7.40;100.00;98993.44;5021245;28;20037;-56
2023/03/14 08:09:31;;;;;;;3.10;2.40;;;;;;;7.38;100.00;99006.84;5024749;28;20030;-58
2023/03/14 08:11:57;;;;;;;3.55;2.28;;;;;;;7.43;100.00;99013.34;5020767;28;20050;-56
2023/03/14 08:14:25;;;;;;;3.30;3.00;;;;;;;7.47;100.00;99025.19;5026018;28;20120;-58
2023/03/14 08:16:50;;;;;;;5.38;3.20;;;;;;;7.42;100.00;99032.81;5021146;28;20037;-57
2023/03/14 08:19:16;;;;;;;4.07;3.00;;;;;;;7.33;100.00;99035.56;5025526;28;20155;-57
2023/03/14 08:21:41;;;;;;;4.78;2.65;;;;;;;7.38;100.00;99049.03;5022386;28;20389;-59
2023/03/14 08:24:06;;;;;;;2.00;1.90;;;;;;;7.48;100.00;99069.00;5028083;28;20022;-58
2023/03/14 08:26:32;;;;;;;5.28;2.10;;;;;;;7.32;100.00;99076.13;5026691;28;20057;-57
2023/03/14 08:28:57;;;;;;;6.22;2.33;;;;;;;7.19;100.00;99089.97;5018132;28;20022;-58
2023/03/14 08:31:22;;;;;;;3.88;2.22;;;;;;;7.22;100.00;99091.41;5019753;28;20034;-57
2023/03/14 08:33:48;;;;;;;3.83;1.77;;;;;;;7.24;100.00;99099.94;5020326;28;20026;-59
2023/03/14 08:36:13;;;;;;;5.47;1.65;;;;;;;7.25;100.00;99117.41;5022187;28;20026;-58
2023/03/14 08:38:38;;;;;;;1.63;1.20;;;;;;;7.30;100.00;99115.03;5023764;28;20026;-57
2023/03/14 08:41:04;;;;;;;3.90;1.33;;;;;;;7.34;100.00;99124.22;5020642;28;20028;-58
2023/03/14 08:43:30;;;;;;;4.43;1.73;;;;;;;7.20;100.00;99130.34;5021826;28;20025;-57
2023/03/14 08:46:00;;;;;;;6.82;2.08;;;;;;;7.30;100.00;99136.13;5023979;28;20392;-57
2023/03/14 08:48:26;;;;;;;6.28;2.42;;;;;;;7.16;100.00;99152.78;5022424;28;20050;-57
2023/03/14 08:50:52;;;;;;;4.38;2.50;;;;;;;7.17;100.00;99162.31;5028760;28;20091;-57
2023/03/14 08:53:18;;;;;;;6.80;2.92;;;;;;;7.17;100.00;99157.88;5024053;28;20057;-57
2023/03/14 08:55:43;;;;;;;6.82;2.85;;;;;;;7.21;100.00;99168.88;5024648;28;20030;-57
2023/03/14 08:58:09;;;;;;;6.15;2.80;;;;;;;7.13;100.00;99173.22;5025576;28;20084;-58
2023/03/14 09:00:34;;;;;;;4.35;2.50;;;;;;;7.24;100.00;99187.78;5025915;28;20044;-57
2023/03/14 09:02:59;;;;;;;5.40;2.80;;;;;;;7.22;100.00;99197.69;5028455;28;20075;-57
2023/03/14 09:05:25;;;;;;;8.68;2.80;;;;;;;7.18;100.00;99190.31;5025041;28;20025;-57
2023/03/14 09:07:50;;;;;;;6.10;2.40;;;;;;;7.22;100.00;99199.50;5025432;28;20040;-56
2023/03/14 09:10:16;;;;;;;4.97;2.60;;;;;;;7.28;100.00;99217.25;5030663;28;20099;-57
2023/03/14 09:12:41;;;;;;;6.93;2.40;;;;;;;7.35;100.00;99226.06;5027848;28;20034;-56
2023/03/14 09:15:07;;;;;;;5.53;2.70;;;;;;;7.29;100.00;99233.91;5029228;28;20061;-57
2023/03/14 09:17:33;;;;;;;3.22;2.63;;;;;;;7.30;100.00;99235.53;5021824;28;20464;-61
2023/03/14 09:19:58;;;;;;;5.25;2.65;;;;;;;7.34;100.00;99240.25;5027534;28;20080;-61
2023/03/14 09:22:23;;;;;;;4.40;2.60;;;;;;;7.47;100.00;99257.28;5014853;28;20401;-60
2023/03/14 09:24:49;;;;;;;5.30;2.70;;;;;;;7.53;100.00;99261.81;5030708;28;20029;-60
2023/03/14 09:27:14;;;;;;;4.82;2.25;;;;;;;7.52;100.00;99276.03;5029380;28;20112;-58
2023/03/14 09:29:39;;;;;;;5.57;2.15;;;;;;;7.57;100.00;99289.50;5024259;28;20057;-57
2023/03/14 09:32:05;;;;;;;4.10;2.10;;;;;;;7.44;100.00;99298.00;5028256;28;20038;-57
2023/03/14 09:34:30;;;;;;;2.58;1.63;;;;;;;7.39;100.00;99303.00;5016340;28;20402;-57
2023/03/14 09:36:56;;;;;;;1.45;1.27;;;;;;;7.47;99.66;99317.94;5028990;28;20469;-57
2023/03/14 09:39:22;;;;;;;2.55;1.42;;;;;;;6.99;100.00;99350.59;5025385;28;20033;-57
2023/03/14 09:41:50;;;;;;;2.13;1.27;;;;;;;6.30;100.00;99362.63;5027562;28;20398;-57
2023/03/14 09:44:17;;;;;;;2.55;1.30;;;;;;;6.69;100.00;99380.25;5032086;28;20433;-57
2023/03/14 09:46:47;;;;;;;2.17;1.00;;;;;;;6.72;100.00;99387.00;5031047;28;20033;-57
2023/03/14 09:49:27;;;;;;;2.58;1.00;;;;;;;6.43;100.00;99414.75;5030023;28;20049;-58
2023/03/14 09:51:54;;;;;;;1.33;1.00;;;;;;;6.38;94.75;99435.50;5029506;28;20037;-56
2023/03/14 09:54:28;;;;;;;1.05;0.80;;;;;;;6.41;92.80;99432.53;5023350;28;20049;-56
2023/03/14 09:56:54;;;;;;;2.22;0.68;;;;;;;6.19;92.62;99455.94;5020853;28;20040;-56
2023/03/14 09:59:20;;;;;;;1.05;0.80;;;;;;;6.01;94.84;99459.53;5030311;28;20033;-58
2023/03/14 10:01:45;;;;;;;4.95;1.10;;;;;;;6.18;92.69;99470.09;5033765;28;20025;-57
2023/03/14 10:04:15;;;;;;;2.38;0.73;;;;;;;6.28;93.48;99475.97;5031000;28;20082;-57
2023/03/14 10:06:40;;;;;;;4.93;1.10;;;;;;;5.62;95.19;99494.38;5024720;28;20061;-56
2023/03/14 10:09:05;;;;;;;3.58;1.50;;;;;;;5.77;96.99;99511.19;5019231;28;20068;-58
2023/03/14 10:11:31;;;;;;;5.60;1.25;;;;;;;5.98;94.00;99512.53;5017503;28;20431;-57
2023/03/14 10:14:12;;;;;;;1.90;0.95;;;;;;;6.38;94.22;99525.03;5024971;28;20090;-57
2023/03/14 10:16:43;;;;;;;4.00;1.30;;;;;;;6.29;95.88;99546.09;5031842;28;20045;-58
2023/03/14 10:19:14;;;;;;;3.00;1.15;;;;;;;6.48;93.09;99554.66;5027924;28;20061;-56
2023/03/14 10:21:42;;;;;;;3.38;1.30;;;;;;;6.42;92.29;99565.84;5032432;28;20029;-56
2023/03/14 10:24:19;;;;;;;4.57;1.60;;;;;;;6.23;93.70;99578.38;5027479;28;20025;-57
2023/03/14 10:27:08;;;;;;;4.45;1.33;;;;;;;6.73;89.66;99583.59;5034080;28;20059;-56
2023/03/14 10:29:34;;;;;;;6.72;1.65;;;;;;;6.35;91.75;99599.09;5038617;28;20560;-56
2023/03/14 10:32:03;;;;;;;3.72;1.35;;;;;;;6.38;90.46;99611.91;5034162;28;20090;-56
2023/03/14 10:34:32;;;;;;;9.30;1.80;;;;;;;6.28;88.53;99623.41;5017317;28;20573;-56
2023/03/14 10:37:03;;;;;;;10.35;2.30;;;;;;;6.01;90.16;99638.50;5029412;28;20021;-56
2023/03/14 10:39:38;;;;;;;7.20;1.65;;;;;;;6.50;87.42;99634.31;5044548;28;20535;-56
2023/03/14 10:42:16;;;;;;;7.90;2.08;;;;;;;6.63;85.52;99652.25;5018244;28;20061;-57
2023/03/14 10:44:42;;;;;;;11.45;2.50;;;;;;;6.31;89.19;99654.69;5034669;28;20034;-57
2023/03/14 10:47:17;;;;;;;18.20;2.58;;;;;;;6.18;86.88;99664.91;5030306;28;20110;-57
2023/03/14 10:49:42;;;;;;;8.18;1.90;;;;;;;6.49;86.26;99668.69;5020066;28;20049;-56
2023/03/14 10:52:22;;;;;;;11.55;2.35;;;;;;;6.18;85.42;99676.22;5027978;28;20025;-56
2023/03/14 10:55:09;;;;;;;9.95;1.65;;;;;;;6.24;88.62;99706.38;5032052;28;20401;-57
2023/03/14 10:57:39;;;;;;;7.30;1.90;;;;;;;6.44;88.38;99706.91;5028263;28;20045;-58
2023/03/14 11:00:08;;;;;;;8.20;1.77;;;;;;;6.05;90.27;99718.81;5030776;28;20037;-56
2023/03/14 11:02:47;;;;;;;13.27;2.50;;;;;;;5.96;91.76;99735.53;5033132;28;20035;-57
2023/03/14 11:05:45;;;;;;;15.65;2.65;;;;;;;5.91;92.09;99736.00;5034235;28;20041;-57
2023/03/14 11:08:39;;;;;;;11.98;2.15;;;;;;;5.83;92.32;99745.66;5030489;28;20027;-56
2023/03/14 11:11:09;;;;;;;12.73;2.20;;;;;;;5.71;92.13;99753.84;5015638;28;20049;-57
2023/03/14 11:13:54;;;;;;;13.77;2.50;;;;;;;5.68;93.93;99769.09;5034441;28;20123;-56
2023/03/14 11:16:34;;;;;;;2.95;1.30;;;;;;;6.24;89.72;99771.34;5034102;28;20060;-56
2023/03/14 11:19:17;;;;;;;15.50;2.70;;;;;;;5.91;91.66;99787.78;5024263;28;20036;-56
2023/03/14 11:21:57;;;;;;;;;;;;;;;6.13;91.73;99790.91;5035056;28;20081;-57
2023/03/14 11:24:55;;;;;;;11.65;2.20;;;;;;;6.12;90.42;99802.41;5033075;28;19928;-55
2023/03/14 11:27:28;;;;;;;11.05;2.20;;;;;;;6.04;89.92;99805.81;5029765;28;20923;-56
2023/03/14 11:30:35;;;;;;;13.68;2.53;;;;;;;5.97;91.95;99816.13;5018161;28;20136;-57
2023/03/14 11:33:27;;;;;;;16.27;2.95;;;;;;;5.65;93.87;99828.09;5025253;28;20112;-58
2023/03/14 11:36:03;;;;;;;14.45;2.20;;;;;;;5.77;93.76;99842.66;5034626;28;20064;-56